• Join FlightAware (Why Join?)
  • Login
  • US Flag 
05:05AM EDT


 

Airport Tracker/Info


-or-


 

Live Flight TrackerFlight Track Log ✈ UPS1081 ✈ 14-May-2013 ✈ KEWR - KSDF

Flight Track Log - Related Links

Times and Time Zones

All times are in EDT time to prevent confusion due to time zone crossing. See the UPS1081 flight status page for this flight to view local times or setup timezone preferences in your user account.

Time Position Orientation Groundspeed Altitude Reporting Facility
EDT Latitude Longitude Course Direction KTS MPH feet Rate Location/Type
11:24PM 40.6729 -74.1799 204° Southwest 167 192 900  Level FlightAware ADS-B
11:24PM 40.6689 -74.1810 192° South 169 194 1,200 3,300 Climbing FlightAware ADS-B
11:24PM 40.6665 -74.1812 184° South 171 197 1,400 3,000 Climbing FlightAware ADS-B
11:24PM 40.6604 -74.1806 176° South 177 204 1,700 2,160 Climbing FlightAware ADS-B
11:24PM 40.6502 -74.1790 173° South 194 223 2,100 1,740 Climbing FlightAware ADS-B
11:24PM 40.6460 -74.1788 178° South 201 231 2,200 1,320 Climbing FlightAware ADS-B
11:24PM 40.6421 -74.1793 186° South 206 237 2,300 1,560 Climbing FlightAware ADS-B
11:25PM 40.6314 -74.1842 199° South 218 251 2,600 1,860 Climbing FlightAware ADS-B
11:25PM 40.6273 -74.1867 205° Southwest 225 259 2,800 1,980 Climbing FlightAware ADS-B
11:25PM 40.6236 -74.1909 221° Southwest 230 265 2,900 1,500 Climbing FlightAware ADS-B
11:25PM 40.6176 -74.1996 228° Southwest 240 276 3,100 2,160 Climbing FlightAware ADS-B
11:25PM 40.6159 -74.2033 239° Southwest 243 280 3,300 3,720 Climbing FlightAware ADS-B
11:25PM 40.6138 -74.2103 248° West 245 282 3,600 3,420 Climbing FlightAware ADS-B
11:25PM 40.6111 -74.2341 262° West 250 288 4,500 3,600 Climbing FlightAware ADS-B
11:26PM 40.6104 -74.2524 267° West 251 289 5,300 4,080 Climbing FlightAware ADS-B
11:26PM 40.6102 -74.2571 267° West 252 290 5,600 3,600 Climbing FlightAware ADS-B
11:26PM 40.6095 -74.2755 267° West 255 293 6,200 3,480 Climbing FlightAware ADS-B
11:26PM 40.6094 -74.2770 265° West 255 293 6,300 3,720 Climbing FlightAware ADS-B
11:26PM 40.6081 -74.2991 266° West 262 302 7,200 3,360 Climbing FlightAware ADS-B
11:26PM 40.6081 -74.3007 270° West 262 302 7,200 3,720 Level FlightAware ADS-B
11:26PM 40.6068 -74.3244 266° West 261 300 8,200 4,080 Climbing FlightAware ADS-B
11:26PM 40.6067 -74.3276 268° West 261 300 8,300 3,420 Climbing FlightAware ADS-B
11:26PM 40.6060 -74.3356 263° West 264 304 8,600 3,180 Climbing FlightAware ADS-B
11:27PM 40.6045 -74.3484 261° West 269 310 9,000 3,660 Climbing FlightAware ADS-B
11:27PM 40.6028 -74.3580 257° West 269 310 9,400 3,780 Climbing FlightAware ADS-B
11:27PM 40.6009 -74.3658 252° West 271 312 9,700 3,720 Climbing FlightAware ADS-B
11:27PM 40.5997 -74.3707 252° West 271 312 9,900 2,460 Climbing FlightAware ADS-B
11:27PM 40.5901 -74.4116 253° West 293 337 10,900 1,800 Climbing FlightAware ADS-B
11:28PM 40.5783 -74.4666 254° West 332 382 11,600 1,440 Climbing FlightAware ADS-B
11:28PM 40.5750 -74.4802 252° West 271 312 11,800 1,800 Climbing FlightAware ADS-B
11:28PM 40.5628 -74.5270 251° West 365 420 12,500 2,820 Climbing FlightAware ADS-B
11:29PM 40.5462 -74.5922 251° West 363 418 14,300 3,000 Climbing FlightAware ADS-B
11:29PM 40.5306 -74.6559 252° West 371 427 15,600 2,520 Climbing FlightAware ADS-B
11:30PM 40.5148 -74.7237 253° West 380 437 16,900 2,340 Climbing FlightAware ADS-B
11:30PM 40.4984 -74.7908 252° West 391 450 18,000 2,400 Climbing FlightAware ADS-B
11:31PM 40.4816 -74.8609 253° West 394 453 19,400 2,400 Climbing FlightAware ADS-B
11:31PM 40.4643 -74.9302 252° West 404 465 20,400 2,160 Climbing FlightAware ADS-B
11:32PM 40.4464 -75.0007 252° West 410 472 21,600 1,920 Climbing FlightAware ADS-B
11:32PM 40.4283 -75.0723 252° West 420 483 22,400 1,680 Climbing FlightAware ADS-B
11:33PM 40.4095 -75.1457 251° West 430 495 23,300 1,980 Climbing FlightAware ADS-B
11:33PM 40.3903 -75.2227 252° West 433 498 24,400 1,980 Climbing FlightAware ADS-B
11:34PM 40.3712 -75.2976 252° West 437 503 25,300 1,560 Climbing FlightAware ADS-B
11:34PM 40.3516 -75.3735 251° West 446 513 26,000 1,320 Climbing FlightAware ADS-B
11:35PM 40.3316 -75.4512 251° West 455 524 26,700 1,440 Climbing FlightAware ADS-B
11:35PM 40.3114 -75.5300 251° West 457 526 27,500 1,860 Climbing FlightAware ADS-B
11:36PM 40.2911 -75.6078 251° West 450 518 28,600 2,100 Climbing FlightAware ADS-B
11:36PM 40.2706 -75.6873 251° West 447 514 29,600 1,740 Climbing FlightAware ADS-B
11:37PM 40.2506 -75.7645 251° West 449 517 30,400 1,740 Climbing FlightAware ADS-B
11:37PM 40.2299 -75.8436 251° West 442 509 31,400 1,560 Climbing FlightAware ADS-B
11:38PM 40.2097 -75.9216 251° West 442 509 32,000 600 Climbing FlightAware ADS-B
11:38PM 40.1896 -75.9980 251° West 444 511 32,000  Level FlightAware ADS-B
11:39PM 40.1694 -76.0737 251° West 440 506 32,000  Level FlightAware ADS-B
11:39PM 40.1492 -76.1512 251° West 437 503 32,000  Level FlightAware ADS-B
11:40PM 40.1291 -76.2284 251° West 436 502 32,000  Level FlightAware ADS-B
11:40PM 40.1089 -76.3027 250° West 437 503 32,000  Level FlightAware ADS-B
11:41PM 40.0891 -76.3780 251° West 441 507 32,000  Level FlightAware ADS-B
11:41PM 40.0687 -76.4559 251° West 441 507 32,000  Level FlightAware ADS-B
11:42PM 40.0482 -76.5312 250° West 440 506 32,000  Level FlightAware ADS-B
11:42PM 40.0280 -76.6059 251° West 437 503 32,000  Level FlightAware ADS-B
11:43PM 40.0079 -76.6803 251° West 435 501 32,000  Level FlightAware ADS-B
11:43PM 39.9879 -76.7545 251° West 433 498 32,000  Level FlightAware ADS-B
11:44PM 39.9667 -76.8330 251° West 432 497 32,000  Level FlightAware ADS-B
11:44PM 39.9463 -76.9089 251° West 432 497 32,000  Level FlightAware ADS-B
11:45PM 39.9258 -76.9823 250° West 431 496 32,000  Level FlightAware ADS-B
11:45PM 39.9041 -77.0628 251° West 432 497 32,000  Level FlightAware ADS-B
11:46PM 39.8816 -77.1439 250° West 435 501 32,000  Level FlightAware ADS-B
11:47PM 39.8613 -77.2179 250° West 437 503 32,000  Level FlightAware ADS-B
11:47PM 39.8385 -77.3016 250° West 431 496 32,000  Level FlightAware ADS-B
11:48PM 39.8170 -77.3770 250° West 427 491 32,000  Level FlightAware
11:48PM 39.8063 -77.4179 251° West 427 491 32,000  Level FlightAware ADS-B
11:48PM 39.7848 -77.4955 250° West 429 494 32,000  Level FlightAware ADS-B
11:49PM 39.7641 -77.5683 250° West 431 496 32,000  Level FlightAware ADS-B
11:49PM 39.7425 -77.6459 250° West 430 495 32,000  Level FlightAware ADS-B
11:50PM 39.7219 -77.7185 250° West 430 495 32,000  Level FlightAware ADS-B
11:50PM 39.7011 -77.7938 250° West 431 496 32,000  Level FlightAware ADS-B
11:51PM 39.6803 -77.8669 250° West 433 498 32,000  Level FlightAware ADS-B
11:51PM 39.6592 -77.9426 250° West 433 498 32,000  Level FlightAware ADS-B
11:52PM 39.6373 -78.0205 250° West 433 498 32,000  Level FlightAware ADS-B
11:53PM 39.6138 -78.1006 249° West 432 497 32,000  Level FlightAware ADS-B
11:53PM 39.5880 -78.1910 250° West 436 502 32,000  Level FlightAware
11:54PM 39.5550 -78.3060 250° West 433 498 32,000  Level FlightAware
11:55PM 39.5270 -78.4030 250° West 431 496 32,000  Level FlightAware
11:55PM 39.4960 -78.5140 250° West 430 495 32,000  Level FlightAware
11:56PM 39.4680 -78.6100 249° West 428 493 32,000  Level FlightAware
11:57PM 39.4350 -78.7200 249° West 428 493 32,000  Level FlightAware
11:58PM 39.4070 -78.8160 249° West 427 491 32,000  Level FlightAware
11:58PM 39.3790 -78.9140 250° West 424 488 32,000  Level FlightAware
11:59PM 39.3480 -79.0180 249° West 426 490 32,000  Level FlightAware
12:00AM 39.3190 -79.1150 249° West 425 489 32,000  Level FlightAware
12:00AM 39.2880 -79.2200 249° West 426 490 32,000  Level FlightAware
12:01AM 39.2590 -79.3180 249° West 429 494 32,000  Level FlightAware
12:02AM 39.2310 -79.4110 249° West 429 494 32,000  Level FlightAware
12:02AM 39.1980 -79.5210 249° West 428 493 32,000  Level FlightAware
12:03AM 39.1700 -79.6160 249° West 428 493 32,000  Level FlightAware
12:04AM 39.1380 -79.7210 249° West 433 498 32,000  Level FlightAware
12:05AM 39.1090 -79.8170 249° West 434 499 32,000  Level FlightAware
12:05AM 39.0800 -79.9130 249° West 430 495 32,000  Level FlightAware
12:09AM 38.9190 -80.4330 248° West 434 499 32,000  Level FlightAware
12:10AM 38.8800 -80.5590 248° West 435 501 32,000  Level FlightAware
12:10AM 38.8510 -80.6530 248° West 437 503 32,000  Level FlightAware
12:11AM 38.8090 -80.7870 248° West 433 498 32,000  Level FlightAware
12:12AM 38.7820 -80.8700 247° West 434 499 32,000  Level FlightAware
12:13AM 38.7440 -80.9920 248° West 435 501 32,000  Level FlightAware
12:13AM 38.7140 -81.0850 248° West 436 502 32,000  Level FlightAware
12:14AM 38.6800 -81.1920 248° West 434 499 32,000  Level FlightAware
12:15AM 38.6500 -81.2850 248° West 429 494 32,000  Level FlightAware
12:16AM 38.6160 -81.3920 248° West 428 493 32,000  Level FlightAware
12:16AM 38.5860 -81.4860 248° West 433 498 32,000  Level FlightAware
12:17AM 38.5540 -81.5840 247° West 432 497 32,000  Level FlightAware
12:18AM 38.5210 -81.6850 247° West 431 496 32,000  Level FlightAware
12:18AM 38.4910 -81.7790 248° West 431 496 32,000  Level FlightAware
12:19AM 38.4550 -81.8870 247° West 431 496 32,000  Level FlightAware
12:20AM 38.4250 -81.9790 247° West 434 499 32,000  Level FlightAware
12:20AM 38.3940 -82.0730 247° West 431 496 32,000  Level FlightAware
12:21AM 38.3580 -82.1830 247° West 431 496 32,000  Level FlightAware
12:22AM 38.3270 -82.2770 247° West 431 496 32,000  Level FlightAware
12:22AM 38.3090 -82.3280 246° West 431 496 32,000  Level FlightAware ADS-B
12:23AM 38.2791 -82.4196 247° West 433 498 32,000  Level FlightAware ADS-B
12:23AM 38.2542 -82.4929 247° West 433 498 32,000  Level FlightAware ADS-B
12:24AM 38.2296 -82.5665 247° West 439 505 32,000  Level FlightAware ADS-B
12:24AM 38.2036 -82.6448 247° West 439 505 32,000  Level FlightAware ADS-B
12:25AM 38.1610 -82.7720 247° West 437 503 32,000  Level FlightAware
12:26AM 38.1290 -82.8640 246° West 436 502 32,000  Level FlightAware
12:27AM 38.0850 -82.9940 247° West 438 504 32,000  Level FlightAware
12:28AM 38.0498 -83.0987 247° West 444 511 32,000  Level FlightAware ADS-B
12:28AM 38.0251 -83.1705 246° West 444 511 32,000  Level FlightAware ADS-B
12:29AM 38.0005 -83.2420 246° West 441 507 32,000  Level FlightAware ADS-B
12:29AM 37.9673 -83.3387 246° West 439 505 32,000  Level FlightAware ADS-B
12:30AM 37.9410 -83.4141 246° West 438 504 32,000  Level FlightAware ADS-B
12:30AM 37.9113 -83.5008 247° West 437 503 32,000  Level FlightAware ADS-B
12:31AM 37.8840 -83.5780 246° West 437 503 32,000  Level FlightAware
12:32AM 37.8560 -83.6580 246° West 437 503 32,000  Level FlightAware
12:32AM 37.8280 -83.7370 246° West 437 503 32,000 -2,760 Level FlightAware
12:33AM 37.7697 -83.9055 246° West 446 513 27,900 -4,380 Descending FlightAware ADS-B
12:34AM 37.7269 -84.0276 246° West 445 512 24,700 -3,000 Descending FlightAware ADS-B
12:35AM 37.7004 -84.1047 247° West 433 498 23,800 -2,460 Descending FlightAware ADS-B
12:35AM 37.6745 -84.1778 246° West 427 491 22,100 -3,180 Descending FlightAware ADS-B
12:36AM 37.6480 -84.2500 245° Southwest 425 489 20,300 -3,300 Descending FlightAware
12:36AM 37.6213 -84.3268 246° West 421 484 18,500 -1,800 Descending FlightAware ADS-B
12:37AM 37.5840 -84.4320 246° West 415 478 17,800 -480 Descending FlightAware
12:38AM 37.5570 -84.5070 246° West 415 478 17,800  Level FlightAware
12:39AM 37.5310 -84.5830 247° West 415 478 17,800  Level FlightAware
12:39AM 37.5040 -84.6580 246° West 415 478 17,800  Level FlightAware
12:40AM 37.4780 -84.7330 246° West 415 478 17,800  Level FlightAware
12:41AM 37.4510 -84.8080 246° West 415 478 17,800 -4,800 Level FlightAware
12:42AM 37.5956 -84.8717 246° West 281 323 10,000 -4,020 Descending Indianapolis Center
12:43AM 37.6458 -84.9422 312° West 271 312 10,000 -480 Level Indianapolis Center
12:48AM 37.9290 -85.3310 312° West 250 288 7,000 -480 Descending FlightAware
12:49AM 37.9700 -85.3900 311° West 249 287 7,000 -300 Level FlightAware
12:50AM 37.9940 -85.4230 313° West 247 284 6,600 -1,020 Descending FlightAware
12:50AM 38.0190 -85.4570 313° West 246 283 6,000 -720 Descending FlightAware
12:50AM 38.0330 -85.4780 310° West 247 284 6,000  Level FlightAware
12:51AM 38.0610 -85.5160 313° West 249 287 6,000  Level FlightAware
12:51AM 38.0840 -85.5480 312° West 249 287 6,000 -480 Level FlightAware
12:52AM 38.1040 -85.5760 312° West 247 284 5,600 -1,080 Descending FlightAware
12:52AM 38.1190 -85.5860 332° Northwest 250 288 5,300 -900 Descending FlightAware
12:53AM 38.1460 -85.6000 338° Northwest 234 269 5,000 -360 Descending FlightAware
12:53AM 38.1750 -85.6130 341° North 212 244 5,000  Level FlightAware
12:54AM 38.2020 -85.6270 338° Northwest 210 242 5,000  Level FlightAware
12:54AM 38.2240 -85.6340 346° North 212 244 5,000  Level FlightAware
12:54AM 38.2540 -85.6440 345° North 213 245 5,000  Level FlightAware
12:55AM 38.2780 -85.6520 345° North 212 244 5,000  Level FlightAware
12:55AM 38.3070 -85.6620 345° North 212 244 5,000  Level FlightAware
12:56AM 38.3340 -85.6700 347° North 214 246 5,000  Level FlightAware
12:56AM 38.3500 -85.6740 349° North 213 245 5,000 -300 Level FlightAware
12:57AM 38.3730 -85.6800 348° North 210 242 4,800 -900 Descending FlightAware
12:57AM 38.3880 -85.6840 348° North 212 244 4,400 -960 Descending FlightAware
12:57AM 38.4140 -85.6900 350° North 198 228 4,100 -600 Descending FlightAware
12:57AM 38.4240 -85.6960 335° Northwest 174 200 4,000 -240 Descending FlightAware
12:58AM 38.4290 -85.7070 300° West 147 169 4,000  Level FlightAware
12:58AM 38.4280 -85.7330 267° West 143 165 4,000  Level FlightAware
12:58AM 38.4240 -85.7450 247° West 148 170 4,000  Level FlightAware
12:59AM 38.4140 -85.7630 235° Southwest 151 174 4,000  Level FlightAware
12:59AM 38.4070 -85.7730 228° Southwest 165 190 4,000  Level FlightAware
12:59AM 38.3960 -85.7770 196° South 176 203 4,000  Level FlightAware
01:00AM 38.3840 -85.7810 195° South 179 206 4,000 -480 Level FlightAware
01:00AM 38.3630 -85.7880 195° South 177 204 3,700 -780 Descending FlightAware
01:01AM 38.3360 -85.7820 170° South 189 217 3,300 -780 Descending FlightAware
01:01AM 38.3170 -85.7760 166° South 184 212 3,000 -780 Descending FlightAware
01:01AM 38.2930 -85.7670 164° South 170 196 2,600 -840 Descending FlightAware
01:02AM 38.2710 -85.7600 166° South 158 182 2,200 -780 Descending FlightAware
01:02AM 38.2540 -85.7540 165° South 130 150 1,900 -780 Descending FlightAware
01:03AM 38.2370 -85.7490 167° South 127 146 1,500 -660 Descending FlightAware
01:03AM 38.2240 -85.7440 163° South 127 146 1,300 -660 Descending FlightAware
01:04AM 38.2060 -85.7380 165° South 129 148 900 -720 Descending FlightAware
01:04AM 38.1890 -85.7320 164° South 130 150 600 -600 Descending FlightAware